createdAt,value
2019-02-10T00:00:16.119Z,2.66
2019-02-10T00:01:24.009Z,2.71
2019-02-10T00:02:32.072Z,2.81
2019-02-10T00:03:41.003Z,2.82
2019-02-10T00:04:48.201Z,2.85
2019-02-10T00:05:56.271Z,2.87
2019-02-10T00:07:04.309Z,2.87
2019-02-10T00:08:12.363Z,2.79
2019-02-10T00:09:20.412Z,2.78
2019-02-10T00:10:28.484Z,2.78
2019-02-10T00:11:36.526Z,2.82
2019-02-10T00:12:44.589Z,2.89
2019-02-10T00:13:52.633Z,2.82
2019-02-10T00:15:00.740Z,2.78
2019-02-10T00:16:08.763Z,2.92
2019-02-10T00:17:16.815Z,2.82
2019-02-10T00:18:24.876Z,2.81
2019-02-10T00:19:32.930Z,2.81
2019-02-10T00:20:40.994Z,2.78
2019-02-10T00:21:49.062Z,2.89
2019-02-10T00:22:57.103Z,2.78
2019-02-10T00:24:05.172Z,2.84
2019-02-10T00:25:13.213Z,2.81
2019-02-10T00:26:21.253Z,2.79
2019-02-10T00:27:29.345Z,2.85
2019-02-10T00:28:37.385Z,2.74
2019-02-10T00:29:45.440Z,2.90
2019-02-10T00:30:53.494Z,2.82
2019-02-10T00:32:01.587Z,2.87
2019-02-10T00:33:09.619Z,2.89
2019-02-10T00:34:17.677Z,2.78
2019-02-10T00:35:25.740Z,2.84
2019-02-10T00:36:33.820Z,2.81
2019-02-10T00:37:41.826Z,2.78
2019-02-10T00:38:49.912Z,2.78
2019-02-10T00:39:57.951Z,2.90
2019-02-10T00:41:06.010Z,2.82
2019-02-10T00:42:14.076Z,2.89
2019-02-10T00:43:22.164Z,2.81
2019-02-10T00:44:30.210Z,2.79
2019-02-10T00:45:38.245Z,2.77
2019-02-10T00:46:46.307Z,2.87
2019-02-10T00:47:54.356Z,2.93
2019-02-10T00:49:02.398Z,2.87
2019-02-10T00:50:10.493Z,2.85
2019-02-10T00:51:18.550Z,2.81
2019-02-10T00:52:26.593Z,2.82
2019-02-10T00:53:34.748Z,2.84
2019-02-10T00:54:42.701Z,2.78
2019-02-10T00:55:50.773Z,2.81
2019-02-10T00:56:58.814Z,2.90
2019-02-10T00:58:06.876Z,2.79
2019-02-10T00:59:14.900Z,2.87
2019-02-10T01:00:22.977Z,2.77
2019-02-10T01:01:31.038Z,2.84
2019-02-10T01:02:39.105Z,2.82
2019-02-10T01:03:47.262Z,2.79
2019-02-10T01:04:55.216Z,2.81
2019-02-10T01:06:03.280Z,2.77
2019-02-10T01:07:11.318Z,2.82
2019-02-10T01:08:19.388Z,2.84
2019-02-10T01:09:27.448Z,2.84
2019-02-10T01:10:35.498Z,2.90
2019-02-10T01:11:43.558Z,2.90
2019-02-10T01:12:51.624Z,2.79
2019-02-10T01:13:59.683Z,2.81
2019-02-10T01:15:07.729Z,2.89
2019-02-10T01:16:15.776Z,2.89
2019-02-10T01:17:23.860Z,2.85
2019-02-10T01:18:31.908Z,2.84
2019-02-10T01:19:39.975Z,2.92
2019-02-10T01:20:48.015Z,2.87
2019-02-10T01:21:56.069Z,2.89
2019-02-10T01:23:04.177Z,2.84
2019-02-10T01:24:12.178Z,2.90
2019-02-10T01:25:20.258Z,2.87
2019-02-10T01:26:28.301Z,2.93
2019-02-10T01:27:36.375Z,2.90
2019-02-10T01:28:44.413Z,2.89
2019-02-10T01:29:52.490Z,3.03
2019-02-10T01:31:00.534Z,2.97
2019-02-10T01:32:08.584Z,2.92
2019-02-10T01:33:16.637Z,2.97
2019-02-10T01:34:24.689Z,2.97
2019-02-10T01:35:32.782Z,3.03
2019-02-10T01:36:40.868Z,2.99
2019-02-10T01:37:48.881Z,3.06
2019-02-10T01:38:56.962Z,3.02
2019-02-10T01:40:04.990Z,2.97
2019-02-10T01:41:13.044Z,3.00
2019-02-10T01:42:21.093Z,3.00
2019-02-10T01:43:29.176Z,2.95
2019-02-10T01:44:37.214Z,2.97
2019-02-10T01:45:45.281Z,3.03
2019-02-10T01:46:53.348Z,3.05
2019-02-10T01:48:01.379Z,2.95
2019-02-10T01:49:09.460Z,2.92
2019-02-10T01:50:17.505Z,2.95
2019-02-10T01:51:25.552Z,3.00
2019-02-10T01:52:33.622Z,2.99
2019-02-10T01:53:41.708Z,2.99
2019-02-10T01:54:49.769Z,2.95
2019-02-10T01:55:57.798Z,2.93
2019-02-10T01:57:05.917Z,2.96
2019-02-10T01:58:13.906Z,2.99
2019-02-10T01:59:21.949Z,2.99
2019-02-10T02:00:30.025Z,2.96
2019-02-10T02:01:38.083Z,2.90
2019-02-10T02:02:46.162Z,2.93
2019-02-10T02:03:54.197Z,3.02
2019-02-10T02:05:02.258Z,3.02
2019-02-10T02:06:10.288Z,2.96
2019-02-10T02:07:18.389Z,2.99
2019-02-10T02:08:26.416Z,3.02
2019-02-10T02:09:34.508Z,3.02
2019-02-10T02:10:42.537Z,3.02
2019-02-10T02:11:50.588Z,3.02
2019-02-10T02:12:58.659Z,2.99
2019-02-10T02:14:06.704Z,2.93
2019-02-10T02:15:14.764Z,3.00
2019-02-10T02:16:22.854Z,3.00
2019-02-10T02:17:30.875Z,2.93
2019-02-10T02:18:38.936Z,3.05
2019-02-10T02:19:47.012Z,2.95
2019-02-10T02:20:55.044Z,2.95
2019-02-10T02:22:03.095Z,2.89
2019-02-10T02:23:11.165Z,2.92
2019-02-10T02:24:19.228Z,2.97
2019-02-10T02:25:27.333Z,2.93
2019-02-10T02:26:35.349Z,2.96
2019-02-10T02:27:43.400Z,2.99
2019-02-10T02:28:51.452Z,2.96
2019-02-10T02:29:59.506Z,2.92
2019-02-10T02:31:07.572Z,2.89
2019-02-10T02:32:15.636Z,2.92
2019-02-10T02:33:23.689Z,2.90
2019-02-10T02:34:31.738Z,2.81
2019-02-10T02:35:39.823Z,2.82
2019-02-10T02:36:47.844Z,2.84
2019-02-10T02:37:55.918Z,2.85
2019-02-10T02:39:03.998Z,2.82
2019-02-10T02:40:12.038Z,2.81
2019-02-10T02:41:20.112Z,2.78
2019-02-10T02:42:28.170Z,2.82
2019-02-10T02:43:36.215Z,2.84
2019-02-10T02:44:44.248Z,2.84
2019-02-10T02:45:52.310Z,2.82
2019-02-10T02:47:00.394Z,2.78
2019-02-10T02:48:08.428Z,2.87
2019-02-10T02:49:16.511Z,2.79
2019-02-10T02:50:24.547Z,2.85
2019-02-10T02:51:32.601Z,2.84
2019-02-10T02:52:40.669Z,2.79
2019-02-10T02:53:48.734Z,2.81
2019-02-10T02:54:56.805Z,2.82
2019-02-10T02:56:04.870Z,2.82
2019-02-10T02:57:12.919Z,2.81
2019-02-10T02:58:20.960Z,2.81
2019-02-10T02:59:29.022Z,2.82
2019-02-10T03:00:37.124Z,2.81
2019-02-10T03:01:45.123Z,2.82
2019-02-10T03:02:53.182Z,2.79
2019-02-10T03:04:01.203Z,2.84
2019-02-10T03:05:09.319Z,2.82
2019-02-10T03:06:17.362Z,2.79
2019-02-10T03:07:25.421Z,2.79
2019-02-10T03:08:33.455Z,2.82
2019-02-10T03:09:41.528Z,2.78
2019-02-10T03:10:49.582Z,2.79
2019-02-10T03:11:57.661Z,2.72
2019-02-10T03:13:05.713Z,2.74
2019-02-10T03:14:13.781Z,2.89
2019-02-10T03:15:21.819Z,2.69
2019-02-10T03:16:29.886Z,2.77
2019-02-10T03:17:37.965Z,2.72
2019-02-10T03:18:52.969Z,2.74
2019-02-10T03:19:54.046Z,2.75
2019-02-10T03:21:02.110Z,2.78
2019-02-10T03:22:10.177Z,2.71
2019-02-10T03:23:18.255Z,2.72
2019-02-10T03:24:26.284Z,2.75
2019-02-10T03:25:34.314Z,2.78
2019-02-10T03:26:42.374Z,2.89
2019-02-10T03:27:50.481Z,2.71
2019-02-10T03:28:58.490Z,2.78
2019-02-10T03:30:06.559Z,2.74
2019-02-10T03:31:14.624Z,2.64
2019-02-10T03:32:22.696Z,2.72
2019-02-10T03:33:30.712Z,2.71
2019-02-10T03:34:38.773Z,2.89
2019-02-10T03:35:46.839Z,2.72
2019-02-10T03:36:54.904Z,2.66
2019-02-10T03:38:02.986Z,2.77
2019-02-10T03:39:11.055Z,2.72
2019-02-10T03:40:19.060Z,2.72
2019-02-10T03:41:27.114Z,2.82
2019-02-10T03:42:35.191Z,2.71
2019-02-10T03:43:43.283Z,2.78
2019-02-10T03:44:51.310Z,2.77
2019-02-10T03:45:59.351Z,2.71
2019-02-10T03:47:07.413Z,2.69
2019-02-10T03:48:15.491Z,2.72
2019-02-10T03:49:23.537Z,2.78
2019-02-10T03:50:31.573Z,2.77
2019-02-10T03:51:39.662Z,2.67
2019-02-10T03:52:47.704Z,2.72
2019-02-10T03:53:55.759Z,2.69
2019-02-10T03:55:03.821Z,2.77
2019-02-10T03:56:11.884Z,2.66
2019-02-10T03:57:19.920Z,2.64
2019-02-10T03:58:27.988Z,2.74
2019-02-10T03:59:36.086Z,2.56
2019-02-10T04:00:44.135Z,2.60
2019-02-10T04:01:52.158Z,2.64
2019-02-10T04:03:00.209Z,2.60
2019-02-10T04:04:08.268Z,2.64
2019-02-10T04:05:16.325Z,2.63
2019-02-10T04:06:24.382Z,2.56
2019-02-10T04:07:36.027Z,2.53
2019-02-10T04:08:40.500Z,2.56
2019-02-10T04:09:48.571Z,2.61
2019-02-10T04:10:56.614Z,2.61
2019-02-10T04:12:04.666Z,2.60
2019-02-10T04:13:12.715Z,2.61
2019-02-10T04:14:20.771Z,2.61
2019-02-10T04:15:28.868Z,2.61
2019-02-10T04:16:36.944Z,2.56
2019-02-10T04:17:44.940Z,2.61
2019-02-10T04:18:53.006Z,2.61
2019-02-10T04:20:01.073Z,2.60
2019-02-10T04:21:09.126Z,2.56
2019-02-10T04:22:17.166Z,2.54
2019-02-10T04:23:25.235Z,2.54
2019-02-10T04:24:33.296Z,2.60
2019-02-10T04:25:41.346Z,2.64
2019-02-10T04:26:49.445Z,2.56
2019-02-10T04:27:57.497Z,2.63
2019-02-10T04:29:05.519Z,2.49
2019-02-10T04:30:13.590Z,2.60
2019-02-10T04:31:21.651Z,2.49
2019-02-10T04:32:29.823Z,2.56
2019-02-10T04:33:37.766Z,2.52
2019-02-10T04:34:45.809Z,2.49
2019-02-10T04:35:53.862Z,2.45
2019-02-10T04:37:01.935Z,2.48
2019-02-10T04:38:10.021Z,2.31
2019-02-10T04:39:18.058Z,2.35
2019-02-10T04:40:26.114Z,2.41
2019-02-10T04:41:34.191Z,2.30
2019-02-10T04:42:42.194Z,2.21
2019-02-10T04:43:50.282Z,2.25
2019-02-10T04:44:58.332Z,2.30
2019-02-10T04:46:06.385Z,2.23
2019-02-10T04:47:14.443Z,2.28
2019-02-10T04:48:22.519Z,2.21
2019-02-10T04:49:30.557Z,2.24
2019-02-10T04:50:38.639Z,2.20
2019-02-10T04:51:46.675Z,2.17
2019-02-10T04:52:54.727Z,2.41
2019-02-10T04:54:02.783Z,2.35
2019-02-10T04:55:10.830Z,2.36
2019-02-10T04:56:18.924Z,2.39
2019-02-10T04:57:27.043Z,2.43
2019-02-10T04:58:35.018Z,2.39
2019-02-10T04:59:43.052Z,2.45
2019-02-10T05:00:51.122Z,2.49
2019-02-10T05:01:59.177Z,2.36
2019-02-10T05:03:07.257Z,2.41
2019-02-10T05:04:15.317Z,2.38
2019-02-10T05:05:23.349Z,2.35
2019-02-10T05:06:31.403Z,2.42
2019-02-10T05:07:39.466Z,2.34
2019-02-10T05:08:47.533Z,2.39
2019-02-10T05:09:55.566Z,2.41
2019-02-10T05:11:03.660Z,2.53
2019-02-10T05:12:11.692Z,2.38
2019-02-10T05:13:19.738Z,2.42
2019-02-10T05:14:27.788Z,2.35
2019-02-10T05:15:35.873Z,2.38
2019-02-10T05:16:44.983Z,2.31
2019-02-10T05:17:51.995Z,2.38
2019-02-10T05:19:00.081Z,2.42
2019-02-10T05:20:08.090Z,2.41
2019-02-10T05:21:16.161Z,2.36
2019-02-10T05:22:24.211Z,2.28
2019-02-10T05:23:32.290Z,2.35
2019-02-10T05:24:40.299Z,2.41
2019-02-10T05:25:48.366Z,2.27
2019-02-10T05:26:56.431Z,2.42
2019-02-10T05:28:04.508Z,2.27
2019-02-10T05:29:12.536Z,2.30
2019-02-10T05:30:20.599Z,2.25
2019-02-10T05:31:28.644Z,2.30
2019-02-10T05:32:36.704Z,2.34
2019-02-10T05:33:44.757Z,2.43
2019-02-10T05:34:52.867Z,2.36
2019-02-10T05:36:00.887Z,2.36
2019-02-10T05:37:08.939Z,2.23
2019-02-10T05:38:16.997Z,2.25
2019-02-10T05:39:25.053Z,2.30
2019-02-10T05:40:33.120Z,2.31
2019-02-10T05:41:41.169Z,2.31
2019-02-10T05:42:49.220Z,2.21
2019-02-10T05:43:57.276Z,2.41
2019-02-10T05:45:05.330Z,2.31
2019-02-10T05:46:13.391Z,2.39
2019-02-10T05:47:21.441Z,2.31
2019-02-10T05:48:29.495Z,2.38
2019-02-10T05:49:37.561Z,2.28
2019-02-10T05:50:45.652Z,2.28
2019-02-10T05:51:53.712Z,2.41
2019-02-10T05:53:01.706Z,2.41
2019-02-10T05:54:09.813Z,2.36
2019-02-10T05:55:17.849Z,2.41
2019-02-10T05:56:25.912Z,2.46
2019-02-10T05:57:33.975Z,2.42
2019-02-10T05:58:42.033Z,2.53
2019-02-10T05:59:50.101Z,2.42
2019-02-10T06:00:58.148Z,2.66
2019-02-10T06:02:06.212Z,2.74
2019-02-10T06:03:14.262Z,2.75
2019-02-10T06:04:22.318Z,2.74
2019-02-10T06:05:30.396Z,2.77
2019-02-10T06:06:38.425Z,2.84
2019-02-10T06:07:46.490Z,2.84
2019-02-10T06:08:54.571Z,2.90
2019-02-10T06:10:02.615Z,2.90
2019-02-10T06:11:10.660Z,2.92
2019-02-10T06:12:18.714Z,2.89
2019-02-10T06:13:26.791Z,2.89
2019-02-10T06:14:34.830Z,2.92
2019-02-10T06:15:42.894Z,2.99
2019-02-10T06:16:50.956Z,2.99
2019-02-10T06:17:59.011Z,3.06
2019-02-10T06:19:07.074Z,3.03
2019-02-10T06:20:15.123Z,3.10
2019-02-10T06:21:23.152Z,3.03
2019-02-10T06:22:31.253Z,3.03
2019-02-10T06:23:39.355Z,3.00
2019-02-10T06:24:47.352Z,3.11
2019-02-10T06:25:55.403Z,3.14
2019-02-10T06:27:03.461Z,3.18
2019-02-10T06:28:11.540Z,3.14
2019-02-10T06:29:20.605Z,3.15
2019-02-10T06:30:28.634Z,3.11
2019-02-10T06:31:36.694Z,3.13
2019-02-10T06:32:44.729Z,3.15
2019-02-10T06:33:52.796Z,3.18
2019-02-10T06:35:00.878Z,3.29
2019-02-10T06:36:08.922Z,3.26
2019-02-10T06:37:16.971Z,3.42
2019-02-10T06:38:25.044Z,3.35
2019-02-10T06:39:33.152Z,3.35
2019-02-10T06:40:41.168Z,3.39
2019-02-10T06:41:49.209Z,3.33
2019-02-10T06:42:57.284Z,3.32
2019-02-10T06:44:05.330Z,3.35
2019-02-10T06:45:13.372Z,3.33
2019-02-10T06:46:21.447Z,3.36
2019-02-10T06:47:29.515Z,3.50
2019-02-10T06:48:37.555Z,3.45
2019-02-10T06:49:45.600Z,3.36
2019-02-10T06:50:53.658Z,3.52
2019-02-10T06:52:01.709Z,3.47
2019-02-10T06:53:09.780Z,3.51
2019-02-10T06:54:18.284Z,3.60
2019-02-10T06:55:25.893Z,3.58
2019-02-10T06:56:33.964Z,3.65
2019-02-10T06:57:42.008Z,3.73
2019-02-10T06:58:50.064Z,3.78
2019-02-10T06:59:58.139Z,3.78
2019-02-10T07:01:06.258Z,3.88
2019-02-10T07:02:14.245Z,3.88
2019-02-10T07:03:22.294Z,3.84
2019-02-10T07:04:30.376Z,3.88
2019-02-10T07:05:38.427Z,3.87
2019-02-10T07:06:46.474Z,3.87
2019-02-10T07:07:54.533Z,3.96
2019-02-10T07:09:02.592Z,3.93
2019-02-10T07:10:10.656Z,4.11
2019-02-10T07:11:18.697Z,4.02
2019-02-10T07:12:26.760Z,4.12
2019-02-10T07:13:35.304Z,4.08
2019-02-10T07:14:42.875Z,4.09
2019-02-10T07:15:50.944Z,4.26
2019-02-10T07:16:59.199Z,4.23
2019-02-10T07:18:07.121Z,4.27
2019-02-10T07:19:15.105Z,4.27
2019-02-10T07:20:23.196Z,4.33
2019-02-10T07:21:31.248Z,4.33
2019-02-10T07:22:39.289Z,4.37
2019-02-10T07:23:47.355Z,4.40
2019-02-10T07:24:55.402Z,4.37
2019-02-10T07:26:03.465Z,4.34
2019-02-10T07:27:11.522Z,4.42
2019-02-10T07:28:19.589Z,4.40
2019-02-10T07:29:27.625Z,4.42
2019-02-10T07:30:35.697Z,4.47
2019-02-10T07:31:43.753Z,4.48
2019-02-10T07:32:51.811Z,4.37
2019-02-10T07:33:59.895Z,4.42
2019-02-10T07:35:07.918Z,4.44
2019-02-10T07:36:16.102Z,4.47
2019-02-10T07:37:24.029Z,4.47
2019-02-10T07:38:38.442Z,4.42
2019-02-10T07:39:40.159Z,4.48
2019-02-10T07:40:48.217Z,4.48
2019-02-10T07:41:56.277Z,4.54
2019-02-10T07:43:04.345Z,4.54
2019-02-10T07:44:12.445Z,4.66
2019-02-10T07:45:20.449Z,4.60
2019-02-10T07:46:28.495Z,4.59
2019-02-10T07:47:36.557Z,4.59
2019-02-10T07:48:44.669Z,4.54
2019-02-10T07:49:52.695Z,4.70
2019-02-10T07:51:00.750Z,4.72
2019-02-10T07:52:08.803Z,4.69
2019-02-10T07:53:16.874Z,4.82
2019-02-10T07:54:24.945Z,4.84
2019-02-10T07:55:33.020Z,4.86
2019-02-10T07:56:41.041Z,4.82
2019-02-10T07:57:49.184Z,4.85
2019-02-10T07:58:57.179Z,4.85
2019-02-10T08:00:05.228Z,4.94
2019-02-10T08:01:13.272Z,4.96
2019-02-10T08:02:21.318Z,4.96
2019-02-10T08:03:29.396Z,4.97
2019-02-10T08:04:37.456Z,4.92
2019-02-10T08:05:45.508Z,5.02
2019-02-10T08:06:53.572Z,5.04
2019-02-10T08:08:01.610Z,5.04
2019-02-10T08:09:09.693Z,5.12
2019-02-10T08:10:17.746Z,5.09
2019-02-10T08:11:25.808Z,5.03
2019-02-10T08:12:33.869Z,5.09
2019-02-10T08:13:41.916Z,5.18
2019-02-10T08:14:49.989Z,5.13
2019-02-10T08:15:58.079Z,5.20
2019-02-10T08:17:06.102Z,5.28
2019-02-10T08:18:14.172Z,5.24
2019-02-10T08:19:22.206Z,5.21
2019-02-10T08:20:30.289Z,5.36
2019-02-10T08:21:38.355Z,5.33
2019-02-10T08:22:46.387Z,5.33
2019-02-10T08:23:54.446Z,5.40
2019-02-10T08:25:02.511Z,5.38
2019-02-10T08:26:10.582Z,5.45
2019-02-10T08:27:18.622Z,5.40
2019-02-10T08:28:29.111Z,5.57
2019-02-10T08:29:35.789Z,5.54
2019-02-10T08:30:43.802Z,5.64
2019-02-10T08:31:51.851Z,5.67
2019-02-10T08:32:59.923Z,5.64
2019-02-10T08:34:08.002Z,5.79
2019-02-10T08:35:16.065Z,5.83
2019-02-10T08:36:24.111Z,5.81
2019-02-10T08:37:32.166Z,5.83
2019-02-10T08:38:40.220Z,5.86
2019-02-10T08:39:48.297Z,5.90
2019-02-10T08:40:56.359Z,5.93
2019-02-10T08:42:04.401Z,6.01
2019-02-10T08:43:12.461Z,6.01
2019-02-10T08:44:20.529Z,6.12
2019-02-10T08:45:28.569Z,6.15
2019-02-10T08:46:36.685Z,6.28
2019-02-10T08:47:44.714Z,6.37
2019-02-10T08:48:52.763Z,6.48
2019-02-10T08:50:00.826Z,6.43
2019-02-10T08:51:09.576Z,6.64
2019-02-10T08:52:16.943Z,6.62
2019-02-10T08:53:24.992Z,6.79
2019-02-10T08:54:33.078Z,6.81
2019-02-10T08:55:41.128Z,7.02
2019-02-10T08:56:49.188Z,6.92
2019-02-10T08:57:57.250Z,7.05
2019-02-10T08:59:05.295Z,7.10
2019-02-10T09:00:13.390Z,7.12
2019-02-10T09:01:21.433Z,7.10
2019-02-10T09:02:29.501Z,7.17
2019-02-10T09:03:37.588Z,7.23
2019-02-10T09:04:45.629Z,7.27
2019-02-10T09:05:53.665Z,7.34
2019-02-10T09:07:01.722Z,7.31
2019-02-10T09:08:09.791Z,7.37
2019-02-10T09:09:17.844Z,7.35
2019-02-10T09:10:25.926Z,7.37
2019-02-10T09:11:33.988Z,7.32
2019-02-10T09:12:42.046Z,7.42
2019-02-10T09:13:50.108Z,7.35
2019-02-10T09:14:58.185Z,7.39
2019-02-10T09:16:06.260Z,7.34
2019-02-10T09:17:14.276Z,7.35
2019-02-10T09:18:22.334Z,7.35
2019-02-10T09:19:30.391Z,7.39
2019-02-10T09:20:38.504Z,7.37
2019-02-10T09:21:46.782Z,7.42
2019-02-10T09:22:54.599Z,7.34
2019-02-10T09:24:02.646Z,7.35
2019-02-10T09:25:10.704Z,7.39
2019-02-10T09:26:18.778Z,7.34
2019-02-10T09:27:26.863Z,7.40
2019-02-10T09:28:34.905Z,7.37
2019-02-10T09:29:43.005Z,7.37
2019-02-10T09:30:51.075Z,7.49
2019-02-10T09:31:59.075Z,7.46
2019-02-10T09:33:07.132Z,7.48
2019-02-10T09:34:15.214Z,7.49
2019-02-10T09:35:23.270Z,7.52
2019-02-10T09:36:31.386Z,7.49
2019-02-10T09:37:39.413Z,7.53
2019-02-10T09:38:47.449Z,7.60
2019-02-10T09:39:55.498Z,7.68
2019-02-10T09:41:03.574Z,7.63
2019-02-10T09:42:11.621Z,7.63
2019-02-10T09:43:19.669Z,7.72
2019-02-10T09:44:27.762Z,7.64
2019-02-10T09:45:35.816Z,7.79
2019-02-10T09:46:43.923Z,7.77
2019-02-10T09:47:51.927Z,7.83
2019-02-10T09:48:59.990Z,7.83
2019-02-10T09:50:08.053Z,7.85
2019-02-10T09:51:16.180Z,7.98
2019-02-10T09:52:24.174Z,7.98
2019-02-10T09:53:32.247Z,8.07
2019-02-10T09:54:40.307Z,8.11
2019-02-10T09:55:48.370Z,8.28
2019-02-10T09:56:56.512Z,8.34
2019-02-10T09:58:04.530Z,8.41
2019-02-10T09:59:12.564Z,8.48
2019-02-10T10:00:20.604Z,8.56
2019-02-10T10:01:28.680Z,8.63
2019-02-10T10:02:36.726Z,8.76
2019-02-10T10:03:44.828Z,8.79
2019-02-10T10:04:52.864Z,8.81
2019-02-10T10:06:00.917Z,8.95
2019-02-10T10:07:08.979Z,8.98
2019-02-10T10:08:17.033Z,8.92
2019-02-10T10:09:25.100Z,8.98
2019-02-10T10:10:33.170Z,8.95
2019-02-10T10:11:41.222Z,8.98
2019-02-10T10:12:49.295Z,8.91
2019-02-10T10:13:57.347Z,8.91
2019-02-10T10:15:05.425Z,9.01
2019-02-10T10:16:13.589Z,8.96
2019-02-10T10:17:21.550Z,8.92
2019-02-10T10:18:29.636Z,9.01
2019-02-10T10:19:37.685Z,8.83
2019-02-10T10:20:45.760Z,8.80
2019-02-10T10:21:53.788Z,8.81
2019-02-10T10:23:01.844Z,8.79
2019-02-10T10:24:09.898Z,8.76
2019-02-10T10:25:17.982Z,8.70
2019-02-10T10:26:26.076Z,8.80
2019-02-10T10:27:34.118Z,8.73
2019-02-10T10:28:42.164Z,8.80
2019-02-10T10:29:50.200Z,8.84
2019-02-10T10:30:58.285Z,8.86
2019-02-10T10:32:06.354Z,8.96
2019-02-10T10:33:14.427Z,8.86
2019-02-10T10:34:22.492Z,8.92
2019-02-10T10:35:30.560Z,8.89
2019-02-10T10:36:38.589Z,8.98
2019-02-10T10:37:46.679Z,9.13
2019-02-10T10:38:54.739Z,9.20
2019-02-10T10:40:02.810Z,9.20
2019-02-10T10:41:10.846Z,9.31
2019-02-10T10:42:18.919Z,9.42
2019-02-10T10:43:26.962Z,9.50
2019-02-10T10:44:35.043Z,9.60
2019-02-10T10:45:43.107Z,9.65
2019-02-10T10:46:51.171Z,9.76
2019-02-10T10:47:59.218Z,9.74
2019-02-10T10:49:07.292Z,9.87
2019-02-10T10:50:15.359Z,9.86
2019-02-10T10:51:23.434Z,9.90
2019-02-10T10:52:31.497Z,9.86
2019-02-10T10:53:39.541Z,9.86
2019-02-10T10:54:47.595Z,9.86
2019-02-10T10:55:55.653Z,9.96
2019-02-10T10:57:03.758Z,9.97
2019-02-10T10:58:11.758Z,10.04
2019-02-10T10:59:19.863Z,10.07
2019-02-10T11:00:27.920Z,9.96
2019-02-10T11:01:35.987Z,10.01
2019-02-10T11:02:44.050Z,10.01
2019-02-10T11:03:52.085Z,10.04
2019-02-10T11:05:00.249Z,10.04
2019-02-10T11:06:08.236Z,10.04
2019-02-10T11:07:16.297Z,10.02
2019-02-10T11:08:24.352Z,10.07
2019-02-10T11:09:35.520Z,10.09
2019-02-10T11:10:40.483Z,10.14
2019-02-10T11:11:48.547Z,10.15
2019-02-10T11:12:56.617Z,10.08
2019-02-10T11:14:04.704Z,10.08
2019-02-10T11:15:12.756Z,10.11
2019-02-10T11:16:20.815Z,10.23
2019-02-10T11:17:28.874Z,10.07
2019-02-10T11:18:36.968Z,10.25
2019-02-10T11:19:45.018Z,10.27
2019-02-10T11:20:53.078Z,10.32
2019-02-10T11:22:01.130Z,10.33
2019-02-10T11:23:09.230Z,10.32
2019-02-10T11:24:17.282Z,10.33
2019-02-10T11:25:25.321Z,10.45
2019-02-10T11:26:33.369Z,10.45
2019-02-10T11:27:41.419Z,10.45
2019-02-10T11:28:49.521Z,10.51
2019-02-10T11:29:57.629Z,10.51
2019-02-10T11:31:05.710Z,10.59
2019-02-10T11:32:13.705Z,10.63
2019-02-10T11:33:21.756Z,10.68
2019-02-10T11:34:29.843Z,10.70
2019-02-10T11:35:37.905Z,10.78
2019-02-10T11:36:45.959Z,10.84
2019-02-10T11:37:54.042Z,10.88
2019-02-10T11:39:02.125Z,10.96
2019-02-10T11:40:10.186Z,10.94
2019-02-10T11:41:18.229Z,11.02
2019-02-10T11:42:26.339Z,10.96
2019-02-10T11:43:34.370Z,10.99
2019-02-10T11:44:42.412Z,10.96
2019-02-10T11:45:50.478Z,11.00
2019-02-10T11:46:58.553Z,11.02
2019-02-10T11:48:07.835Z,11.09
2019-02-10T11:49:14.658Z,11.09
2019-02-10T11:50:22.717Z,11.21
2019-02-10T11:51:30.813Z,11.22
2019-02-10T11:52:38.869Z,11.21
2019-02-10T11:53:46.938Z,11.27
2019-02-10T11:54:55.031Z,11.32
2019-02-10T11:56:03.089Z,11.43
2019-02-10T11:57:11.119Z,11.52
2019-02-10T11:58:19.173Z,11.52
2019-02-10T11:59:27.262Z,11.54
2019-02-10T12:00:35.313Z,11.55
2019-02-10T12:01:43.393Z,11.65
2019-02-10T12:02:51.426Z,11.61
2019-02-10T12:03:59.497Z,11.58
2019-02-10T12:05:07.560Z,11.70
2019-02-10T12:06:15.647Z,11.72
2019-02-10T12:07:23.706Z,11.67
2019-02-10T12:08:35.518Z,11.69
2019-02-10T12:09:39.830Z,11.76
2019-02-10T12:10:47.908Z,11.82
2019-02-10T12:11:55.941Z,11.79
2019-02-10T12:13:04.057Z,11.88
2019-02-10T12:14:12.089Z,11.91
2019-02-10T12:15:20.157Z,12.09
2019-02-10T12:16:28.231Z,12.10
2019-02-10T12:17:36.301Z,12.17
2019-02-10T12:18:44.374Z,12.20
2019-02-10T12:19:52.413Z,12.27
2019-02-10T12:21:00.492Z,12.28
2019-02-10T12:22:08.569Z,12.23
2019-02-10T12:23:16.600Z,12.28
2019-02-10T12:24:24.685Z,12.37
2019-02-10T12:25:32.738Z,12.34
2019-02-10T12:26:40.810Z,12.41
2019-02-10T12:27:48.884Z,12.32
2019-02-10T12:28:56.949Z,12.21
2019-02-10T12:30:05.052Z,12.23
2019-02-10T12:31:13.090Z,12.12
2019-02-10T12:32:21.158Z,12.14
2019-02-10T12:33:29.200Z,12.05
2019-02-10T12:34:37.283Z,11.99
2019-02-10T12:35:45.319Z,12.04
2019-02-10T12:36:53.404Z,11.95
2019-02-10T12:38:01.461Z,11.91
2019-02-10T12:39:09.521Z,11.90
2019-02-10T12:40:17.592Z,11.85
2019-02-10T12:41:25.661Z,11.72
2019-02-10T12:42:33.726Z,11.70
2019-02-10T12:43:41.768Z,11.51
2019-02-10T12:44:50.109Z,11.60
2019-02-10T12:45:57.917Z,11.51
2019-02-10T12:47:06.010Z,11.57
2019-02-10T12:48:14.067Z,11.51
2019-02-10T12:49:22.125Z,11.55
2019-02-10T12:50:30.185Z,11.52
2019-02-10T12:51:38.265Z,11.55
2019-02-10T12:52:46.326Z,11.49
2019-02-10T12:53:54.395Z,11.46
2019-02-10T12:55:02.860Z,11.49
2019-02-10T12:56:10.508Z,11.40
2019-02-10T12:57:18.583Z,11.42
2019-02-10T12:58:26.631Z,11.27
2019-02-10T12:59:34.699Z,11.24
2019-02-10T13:00:42.769Z,11.21
2019-02-10T13:01:50.832Z,11.19
2019-02-10T13:02:58.897Z,11.19
2019-02-10T13:04:06.946Z,11.15
2019-02-10T13:05:15.139Z,11.15
2019-02-10T13:06:23.083Z,11.10
2019-02-10T13:07:31.158Z,10.97
2019-02-10T13:08:39.240Z,10.97
2019-02-10T13:09:47.288Z,10.88
2019-02-10T13:10:55.352Z,10.79
2019-02-10T13:12:03.420Z,10.71
2019-02-10T13:13:18.871Z,10.52
2019-02-10T13:14:19.538Z,10.45
2019-02-10T13:15:29.031Z,10.33
2019-02-10T13:16:35.686Z,10.20
2019-02-10T13:17:43.750Z,10.14
2019-02-10T13:18:51.775Z,9.94
2019-02-10T13:19:59.851Z,9.97
2019-02-10T13:21:07.925Z,9.96
2019-02-10T13:22:15.982Z,9.83
2019-02-10T13:23:24.076Z,9.87
2019-02-10T13:24:32.146Z,9.76
2019-02-10T13:25:40.162Z,9.72
2019-02-10T13:26:48.224Z,9.69
2019-02-10T13:27:56.308Z,9.69
2019-02-10T13:29:04.427Z,9.65
2019-02-10T13:30:12.396Z,9.58
2019-02-10T13:31:20.500Z,9.65
2019-02-10T13:32:28.571Z,9.51
2019-02-10T13:33:36.648Z,9.53
2019-02-10T13:34:45.043Z,9.46
2019-02-10T13:35:52.880Z,9.32
2019-02-10T13:37:00.811Z,9.35
2019-02-10T13:38:08.865Z,9.32
2019-02-10T13:39:16.920Z,9.29
2019-02-10T13:40:24.992Z,9.31
2019-02-10T13:41:33.074Z,9.21
2019-02-10T13:42:41.131Z,9.21
2019-02-10T13:43:49.180Z,9.11
2019-02-10T13:44:57.277Z,9.08
2019-02-10T13:46:05.320Z,9.01
2019-02-10T13:47:13.379Z,9.02
2019-02-10T13:48:21.711Z,8.99
2019-02-10T13:49:29.483Z,8.99
2019-02-10T13:50:37.669Z,8.98
2019-02-10T13:51:46.288Z,8.87
2019-02-10T13:52:53.958Z,8.99
2019-02-10T13:54:01.783Z,8.95
2019-02-10T13:55:09.810Z,8.99
2019-02-10T13:56:17.852Z,8.99
2019-02-10T13:57:25.909Z,8.92
2019-02-10T13:58:34.002Z,8.92
2019-02-10T13:59:42.008Z,8.84
2019-02-10T14:00:50.127Z,8.86
2019-02-10T14:01:58.168Z,8.89
2019-02-10T14:03:06.218Z,8.96
2019-02-10T14:04:14.297Z,8.94
2019-02-10T14:05:22.361Z,8.95
2019-02-10T14:06:30.436Z,8.92
2019-02-10T14:07:38.465Z,8.99
2019-02-10T14:08:46.561Z,8.89
2019-02-10T14:09:54.592Z,9.02
2019-02-10T14:11:02.644Z,8.96
2019-02-10T14:12:10.733Z,8.87
2019-02-10T14:13:19.395Z,8.92
2019-02-10T14:14:26.844Z,8.83
2019-02-10T14:15:34.923Z,8.92
2019-02-10T14:16:42.968Z,8.89
2019-02-10T14:17:51.026Z,8.83
2019-02-10T14:18:59.101Z,8.87
2019-02-10T14:20:07.147Z,8.92
2019-02-10T14:21:15.233Z,8.91
2019-02-10T14:22:23.277Z,9.01
2019-02-10T14:23:31.343Z,8.99
2019-02-10T14:24:39.390Z,8.95
2019-02-10T14:25:47.445Z,8.91
2019-02-10T14:26:55.510Z,8.91
2019-02-10T14:28:03.588Z,8.99
2019-02-10T14:29:11.621Z,8.95
2019-02-10T14:30:19.710Z,8.95
2019-02-10T14:31:27.794Z,8.98
2019-02-10T14:32:35.847Z,9.04
2019-02-10T14:33:43.910Z,8.95
2019-02-10T14:34:51.930Z,8.99
2019-02-10T14:36:00.016Z,9.05
2019-02-10T14:37:08.072Z,8.99
2019-02-10T14:38:16.124Z,9.01
2019-02-10T14:39:24.201Z,8.87
2019-02-10T14:40:33.607Z,8.94
2019-02-10T14:41:40.294Z,9.04
2019-02-10T14:42:48.551Z,8.99
2019-02-10T14:43:56.491Z,9.01
2019-02-10T14:45:04.498Z,9.04
2019-02-10T14:46:12.550Z,9.04
2019-02-10T14:47:20.638Z,9.01
2019-02-10T14:48:28.686Z,9.01
2019-02-10T14:49:36.743Z,8.98
2019-02-10T14:50:44.803Z,8.92
2019-02-10T14:51:53.007Z,8.94
2019-02-10T14:53:00.926Z,8.98
2019-02-10T14:54:08.992Z,8.99
2019-02-10T14:55:17.067Z,9.01
2019-02-10T14:56:25.105Z,8.98
2019-02-10T14:57:33.172Z,8.94
2019-02-10T14:58:43.040Z,8.96
2019-02-10T14:59:49.309Z,8.98
2019-02-10T15:00:57.355Z,8.91